Nearby METAR Reports

 

KNFG - Camp Pendleton, California, USA
Distance from station: WNW 5mi, 8km
Updated: Tue, 20-Feb-2018 2:55pm PST
Clear
Clear
 Wind from W
Wind: W 9 mph , 15 km/h
Temperature: 55°F , 13°C
Dew Point: 21°F , -6°C
Humidity: 26%
Barometer: 30.10 inHg , 1019.3 hPa
Clouds: Clear
Visibility: 10 miles , 16 km
2018/02/20 22:55 KNFG 202255Z 27008KT 10SM CLR 13/M06 A3010 RMK AO2 SLP192 T01331061
KOKB - Oceanside, California, USA
Distance from station: WSW 6mi, 10km
Updated: Tue, 20-Feb-2018 2:52pm PST
Clear
Clear
 Wind from W
Wind: W 13 mph , 20 km/h
Temperature: 57°F , 14°C
Dew Point: 19°F , -7°C
Humidity: 23%
Barometer: 30.10 inHg , 1019.3 hPa
Clouds: Clear
Visibility: 10 miles , 16 km
2018/02/20 22:52 KOKB 202252Z AUTO 27011KT 10SM CLR 14/M07 A3010 RMK AO2 SLP190 T01441067
 
KCRQ - Carlsbad, California, USA
Distance from station: SSW 8mi, 13km
Updated: Tue, 20-Feb-2018 2:53pm PST
Clear
Clear
 Wind from W
Wind: W 8 mph , 13 km/h, Gust: 20 mph , 31 km/h
Temperature: 55°F , 13°C
Dew Point: 18°F , -8°C
Humidity: 23%
Barometer: 30.09 inHg , 1019 hPa
Clouds: Clear
Visibility: 10 miles , 16 km
2018/02/20 22:53 KCRQ 202253Z AUTO 27007G17KT 10SM CLR 13/M08 A3009 RMK AO2 SLP190 T01331078 $
KNXF - Oceanside/Red-B, California, USA
Distance from station: WNW 12mi, 19km
Updated: Tue, 20-Feb-2018 2:56pm PST
Clear
Clear
 Wind from W
Wind: W 13 mph , 20 km/h
Temperature: 57°F , 14°C
Dew Point: 25°F , -4°C
Humidity: 29%
Barometer: 30.11 inHg , 1019.6 hPa
Clouds: Clear
Visibility: 10 miles , 16 km
2018/02/20 22:56 KNXF 202256Z AUTO 27011KT 10SM CLR 14/M04 A3011 RMK AO2 SLP283 T01391039 PNO $
 
KSNA - Costa Mesa, California, USA
Distance from station: NW 46mi, 74km
Updated: Tue, 20-Feb-2018 2:53pm PST
Clear
Clear
 Wind from WSW
Wind: WSW 10 mph , 17 km/h
Temperature: 57°F , 14°C
Dew Point: 19°F , -7°C
Humidity: 23%
Barometer: 30.10 inHg , 1019.3 hPa
Clouds: Clear
Visibility: 10 miles , 16 km
2018/02/20 22:53 KSNA 202253Z 24009KT 10SM CLR 14/M07 A3010 RMK AO2 SLP194 T01391072
KCDC - Cedar City, Utah, USA
Distance from station: S 5mi, 8km
Updated: Tue, 20-Feb-2018 2:53pm PST
Clear
Clear
 Wind from varies
Wind: varies 3 mph , 6 km/h
Temperature: 27°F , -3°C
Dew Point: 9°F , -13°C
Humidity: 46%
Barometer: 30.00 inHg , 1015.9 hPa
Clouds: Clear
Visibility: 10 miles , 16 km
2018/02/20 22:53 KCDC 202253Z AUTO VRB03KT 10SM CLR M03/M13 A3000 RMK AO2 SLPNO T10331128